sensor_id;sensor_type;location;lat;lon;timestamp;pressure;altitude;pressure_sealevel;temperature;humidity
64141;BME280;50436;50.618;7.932;2024-03-07T00:00:44;97201.44;;;1.11;100.00
64141;BME280;50436;50.618;7.932;2024-03-07T00:03:29;97199.81;;;1.10;100.00
64141;BME280;50436;50.618;7.932;2024-03-07T00:06:15;97195.66;;;1.08;100.00
64141;BME280;50436;50.618;7.932;2024-03-07T00:09:01;97198.44;;;1.15;100.00
64141;BME280;50436;50.618;7.932;2024-03-07T00:11:48;97201.72;;;1.17;100.00
64141;BME280;50436;50.618;7.932;2024-03-07T00:14:34;97200.81;;;1.09;100.00
64141;BME280;50436;50.618;7.932;2024-03-07T00:17:21;97212.00;;;1.11;100.00
64141;BME280;50436;50.618;7.932;2024-03-07T00:20:08;97209.22;;;1.05;100.00
64141;BME280;50436;50.618;7.932;2024-03-07T00:22:54;97208.75;;;0.85;100.00
64141;BME280;50436;50.618;7.932;2024-03-07T00:25:40;97211.94;;;0.80;100.00
64141;BME280;50436;50.618;7.932;2024-03-07T00:28:26;97211.41;;;0.85;100.00
64141;BME280;50436;50.618;7.932;2024-03-07T00:31:17;97207.88;;;1.09;100.00
64141;BME280;50436;50.618;7.932;2024-03-07T00:34:03;97210.25;;;1.35;100.00
64141;BME280;50436;50.618;7.932;2024-03-07T00:36:49;97201.78;;;1.71;100.00
64141;BME280;50436;50.618;7.932;2024-03-07T00:39:37;97208.31;;;2.06;100.00
64141;BME280;50436;50.618;7.932;2024-03-07T00:42:23;97219.22;;;2.26;100.00
64141;BME280;50436;50.618;7.932;2024-03-07T00:45:09;97203.59;;;2.39;100.00
64141;BME280;50436;50.618;7.932;2024-03-07T00:47:55;97210.28;;;2.49;100.00
64141;BME280;50436;50.618;7.932;2024-03-07T00:50:40;97203.19;;;2.65;100.00
64141;BME280;50436;50.618;7.932;2024-03-07T00:53:28;97199.09;;;2.77;100.00
64141;BME280;50436;50.618;7.932;2024-03-07T00:56:14;97194.72;;;2.84;100.00
64141;BME280;50436;50.618;7.932;2024-03-07T00:59:00;97203.38;;;2.93;100.00
64141;BME280;50436;50.618;7.932;2024-03-07T01:01:45;97196.47;;;2.92;100.00
64141;BME280;50436;50.618;7.932;2024-03-07T01:04:31;97194.72;;;2.99;100.00
64141;BME280;50436;50.618;7.932;2024-03-07T01:07:19;97197.38;;;2.99;100.00
64141;BME280;50436;50.618;7.932;2024-03-07T01:10:05;97203.56;;;2.91;100.00
64141;BME280;50436;50.618;7.932;2024-03-07T01:12:51;97185.59;;;2.72;100.00
64141;BME280;50436;50.618;7.932;2024-03-07T01:15:39;97188.97;;;2.66;100.00
64141;BME280;50436;50.618;7.932;2024-03-07T01:18:25;97191.34;;;2.61;100.00
64141;BME280;50436;50.618;7.932;2024-03-07T01:21:11;97183.59;;;2.59;100.00
64141;BME280;50436;50.618;7.932;2024-03-07T01:23:57;97191.34;;;2.61;100.00
64141;BME280;50436;50.618;7.932;2024-03-07T01:26:43;97187.13;;;2.51;100.00
64141;BME280;50436;50.618;7.932;2024-03-07T01:29:28;97187.47;;;2.48;100.00
64141;BME280;50436;50.618;7.932;2024-03-07T01:32:15;97187.03;;;2.45;100.00
64141;BME280;50436;50.618;7.932;2024-03-07T01:35:00;97187.03;;;2.45;100.00
64141;BME280;50436;50.618;7.932;2024-03-07T01:37:46;97181.44;;;2.40;100.00
64141;BME280;50436;50.618;7.932;2024-03-07T01:40:32;97182.94;;;2.42;100.00
64141;BME280;50436;50.618;7.932;2024-03-07T01:43:18;97182.97;;;2.57;100.00
64141;BME280;50436;50.618;7.932;2024-03-07T01:46:04;97180.16;;;2.73;100.00
64141;BME280;50436;50.618;7.932;2024-03-07T01:48:50;97182.88;;;2.95;100.00
64141;BME280;50436;50.618;7.932;2024-03-07T01:51:38;97188.25;;;3.01;100.00
64141;BME280;50436;50.618;7.932;2024-03-07T01:54:25;97181.22;;;3.08;100.00
64141;BME280;50436;50.618;7.932;2024-03-07T01:57:12;97175.75;;;3.10;100.00
64141;BME280;50436;50.618;7.932;2024-03-07T02:00:00;97175.13;;;2.93;100.00
64141;BME280;50436;50.618;7.932;2024-03-07T02:02:53;97172.38;;;2.72;100.00
64141;BME280;50436;50.618;7.932;2024-03-07T02:05:40;97177.75;;;2.64;100.00
64141;BME280;50436;50.618;7.932;2024-03-07T02:08:25;97170.56;;;2.58;100.00
64141;BME280;50436;50.618;7.932;2024-03-07T02:11:11;97168.81;;;2.50;100.00
64141;BME280;50436;50.618;7.932;2024-03-07T02:13:58;97160.22;;;2.48;100.00
64141;BME280;50436;50.618;7.932;2024-03-07T02:16:44;97156.84;;;2.39;100.00
64141;BME280;50436;50.618;7.932;2024-03-07T02:19:30;97151.72;;;2.23;100.00
64141;BME280;50436;50.618;7.932;2024-03-07T02:22:18;97153.31;;;2.09;100.00
64141;BME280;50436;50.618;7.932;2024-03-07T02:25:05;97147.66;;;1.98;100.00
64141;BME280;50436;50.618;7.932;2024-03-07T02:27:52;97146.72;;;1.90;100.00
64141;BME280;50436;50.618;7.932;2024-03-07T02:30:37;97141.81;;;1.87;100.00
64141;BME280;50436;50.618;7.932;2024-03-07T02:33:23;97142.16;;;1.84;100.00
64141;BME280;50436;50.618;7.932;2024-03-07T02:36:09;97139.25;;;1.94;100.00
64141;BME280;50436;50.618;7.932;2024-03-07T02:38:55;97127.94;;;2.08;100.00
64141;BME280;50436;50.618;7.932;2024-03-07T02:41:41;97141.56;;;2.35;100.00
64141;BME280;50436;50.618;7.932;2024-03-07T02:44:28;97144.84;;;2.51;100.00
64141;BME280;50436;50.618;7.932;2024-03-07T02:47:14;97137.84;;;2.59;100.00
64141;BME280;50436;50.618;7.932;2024-03-07T02:50:00;97134.00;;;2.61;100.00
64141;BME280;50436;50.618;7.932;2024-03-07T02:52:46;97131.47;;;2.68;100.00
64141;BME280;50436;50.618;7.932;2024-03-07T02:55:32;97133.00;;;2.77;100.00
64141;BME280;50436;50.618;7.932;2024-03-07T02:58:18;97126.19;;;2.83;100.00
64141;BME280;50436;50.618;7.932;2024-03-07T03:01:04;97125.91;;;2.92;100.00
64141;BME280;50436;50.618;7.932;2024-03-07T03:03:49;97133.91;;;2.99;100.00
64141;BME280;50436;50.618;7.932;2024-03-07T03:06:35;97124.78;;;3.01;100.00
64141;BME280;50436;50.618;7.932;2024-03-07T03:09:21;97126.69;;;3.07;100.00
64141;BME280;50436;50.618;7.932;2024-03-07T03:12:07;97132.53;;;3.03;100.00
64141;BME280;50436;50.618;7.932;2024-03-07T03:14:54;97131.56;;;3.04;100.00
64141;BME280;50436;50.618;7.932;2024-03-07T03:17:39;97129.34;;;3.07;100.00
64141;BME280;50436;50.618;7.932;2024-03-07T03:20:26;97138.28;;;3.06;100.00
64141;BME280;50436;50.618;7.932;2024-03-07T03:23:11;97128.06;;;3.03;100.00
64141;BME280;50436;50.618;7.932;2024-03-07T03:25:59;97122.06;;;2.80;100.00
64141;BME280;50436;50.618;7.932;2024-03-07T03:28:47;97132.19;;;2.76;100.00
64141;BME280;50436;50.618;7.932;2024-03-07T03:31:33;97126.09;;;2.91;100.00
64141;BME280;50436;50.618;7.932;2024-03-07T03:34:20;97131.19;;;2.92;100.00
64141;BME280;50436;50.618;7.932;2024-03-07T03:37:06;97120.88;;;2.97;100.00
64141;BME280;50436;50.618;7.932;2024-03-07T03:39:54;97117.69;;;2.87;100.00
64141;BME280;50436;50.618;7.932;2024-03-07T03:42:41;97112.25;;;2.89;100.00
64141;BME280;50436;50.618;7.932;2024-03-07T03:45:28;97113.41;;;2.86;100.00
64141;BME280;50436;50.618;7.932;2024-03-07T03:48:14;97112.97;;;2.68;100.00
64141;BME280;50436;50.618;7.932;2024-03-07T03:51:00;97112.88;;;2.76;100.00
64141;BME280;50436;50.618;7.932;2024-03-07T03:53:46;97107.22;;;2.79;100.00
64141;BME280;50436;50.618;7.932;2024-03-07T03:56:32;97111.34;;;2.82;100.00
64141;BME280;50436;50.618;7.932;2024-03-07T03:59:17;97106.88;;;2.82;100.00
64141;BME280;50436;50.618;7.932;2024-03-07T04:02:03;97113.22;;;2.88;100.00
64141;BME280;50436;50.618;7.932;2024-03-07T04:04:51;97107.88;;;2.81;100.00
64141;BME280;50436;50.618;7.932;2024-03-07T04:07:37;97112.59;;;2.86;100.00
64141;BME280;50436;50.618;7.932;2024-03-07T04:10:24;97105.94;;;2.75;100.00
64141;BME280;50436;50.618;7.932;2024-03-07T04:13:10;97107.47;;;2.40;100.00
64141;BME280;50436;50.618;7.932;2024-03-07T04:15:56;97107.94;;;2.29;100.00
64141;BME280;50436;50.618;7.932;2024-03-07T04:18:42;97115.84;;;2.14;100.00
64141;BME280;50436;50.618;7.932;2024-03-07T04:21:28;97111.00;;;2.03;100.00
64141;BME280;50436;50.618;7.932;2024-03-07T04:24:13;97106.81;;;2.08;100.00
64141;BME280;50436;50.618;7.932;2024-03-07T04:27:00;97106.72;;;2.16;100.00
64141;BME280;50436;50.618;7.932;2024-03-07T04:29:46;97105.81;;;2.09;100.00
64141;BME280;50436;50.618;7.932;2024-03-07T04:32:33;97104.28;;;2.30;100.00
64141;BME280;50436;50.618;7.932;2024-03-07T04:35:27;97108.78;;;2.44;100.00
64141;BME280;50436;50.618;7.932;2024-03-07T04:38:13;97101.88;;;2.58;100.00
64141;BME280;50436;50.618;7.932;2024-03-07T04:41:00;97097.56;;;2.71;100.00
64141;BME280;50436;50.618;7.932;2024-03-07T04:43:46;97099.66;;;2.76;100.00
64141;BME280;50436;50.618;7.932;2024-03-07T04:46:32;97099.66;;;2.76;100.00
64141;BME280;50436;50.618;7.932;2024-03-07T04:49:18;97102.03;;;2.71;100.00
64141;BME280;50436;50.618;7.932;2024-03-07T04:52:04;97097.13;;;2.68;100.00
64141;BME280;50436;50.618;7.932;2024-03-07T04:54:50;97095.81;;;2.78;100.00
64141;BME280;50436;50.618;7.932;2024-03-07T04:57:36;97099.38;;;2.71;100.00
64141;BME280;50436;50.618;7.932;2024-03-07T05:00:24;97100.28;;;2.63;100.00
64141;BME280;50436;50.618;7.932;2024-03-07T05:03:10;97099.03;;;2.59;100.00
64141;BME280;50436;50.618;7.932;2024-03-07T05:05:56;97102.03;;;2.71;100.00
64141;BME280;50436;50.618;7.932;2024-03-07T05:08:43;97102.13;;;2.77;100.00
64141;BME280;50436;50.618;7.932;2024-03-07T05:11:32;97098.84;;;2.61;100.00
64141;BME280;50436;50.618;7.932;2024-03-07T05:14:19;97105.66;;;2.55;100.00
64141;BME280;50436;50.618;7.932;2024-03-07T05:17:05;97110.59;;;2.43;100.00
64141;BME280;50436;50.618;7.932;2024-03-07T05:19:51;97107.31;;;2.41;100.00
64141;BME280;50436;50.618;7.932;2024-03-07T05:22:38;97104.59;;;2.35;100.00
64141;BME280;50436;50.618;7.932;2024-03-07T05:25:30;97099.84;;;2.30;100.00
64141;BME280;50436;50.618;7.932;2024-03-07T05:28:15;97091.53;;;2.18;100.00
64141;BME280;50436;50.618;7.932;2024-03-07T05:31:01;97094.63;;;2.22;100.00
64141;BME280;50436;50.618;7.932;2024-03-07T05:33:49;97099.84;;;2.30;100.00
64141;BME280;50436;50.618;7.932;2024-03-07T05:36:36;97108.88;;;2.36;100.00
64141;BME280;50436;50.618;7.932;2024-03-07T05:39:21;97105.09;;;2.15;100.00
64141;BME280;50436;50.618;7.932;2024-03-07T05:42:10;97101.22;;;1.88;100.00
64141;BME280;50436;50.618;7.932;2024-03-07T05:44:59;97109.44;;;1.71;100.00
64141;BME280;50436;50.618;7.932;2024-03-07T05:47:45;97107.09;;;1.53;100.00
64141;BME280;50436;50.618;7.932;2024-03-07T05:50:33;97101.63;;;1.31;100.00
64141;BME280;50436;50.618;7.932;2024-03-07T05:53:18;97106.13;;;1.23;100.00
64141;BME280;50436;50.618;7.932;2024-03-07T05:56:04;97101.72;;;1.15;100.00
64141;BME280;50436;50.618;7.932;2024-03-07T05:58:53;97100.69;;;1.01;100.00
64141;BME280;50436;50.618;7.932;2024-03-07T06:01:39;97103.19;;;0.95;100.00
64141;BME280;50436;50.618;7.932;2024-03-07T06:04:26;97104.69;;;0.89;100.00
64141;BME280;50436;50.618;7.932;2024-03-07T06:07:12;97094.63;;;0.84;100.00
64141;BME280;50436;50.618;7.932;2024-03-07T06:09:58;97103.06;;;0.80;100.00
64141;BME280;50436;50.618;7.932;2024-03-07T06:12:44;97099.13;;;0.76;100.00
64141;BME280;50436;50.618;7.932;2024-03-07T06:15:31;97097.47;;;0.75;100.00
64141;BME280;50436;50.618;7.932;2024-03-07T06:18:17;97084.84;;;0.62;100.00
64141;BME280;50436;50.618;7.932;2024-03-07T06:21:03;97090.63;;;0.66;100.00
64141;BME280;50436;50.618;7.932;2024-03-07T06:23:50;97100.97;;;0.67;100.00
64141;BME280;50436;50.618;7.932;2024-03-07T06:26:44;97087.47;;;0.62;100.00
64141;BME280;50436;50.618;7.932;2024-03-07T06:29:30;97088.78;;;0.66;100.00
64141;BME280;50436;50.618;7.932;2024-03-07T06:32:17;97091.81;;;0.55;100.00
64141;BME280;50436;50.618;7.932;2024-03-07T06:35:03;97093.91;;;0.60;100.00
64141;BME280;50436;50.618;7.932;2024-03-07T06:37:50;97098.38;;;0.59;100.00
64141;BME280;50436;50.618;7.932;2024-03-07T06:40:39;97089.69;;;0.50;100.00
64141;BME280;50436;50.618;7.932;2024-03-07T06:43:30;97101.53;;;0.54;100.00
64141;BME280;50436;50.618;7.932;2024-03-07T06:46:16;97102.00;;;0.58;100.00
64141;BME280;50436;50.618;7.932;2024-03-07T06:49:02;97099.94;;;0.76;100.00
64141;BME280;50436;50.618;7.932;2024-03-07T06:51:48;97102.69;;;0.91;100.00
64141;BME280;50436;50.618;7.932;2024-03-07T06:54:34;97098.13;;;1.08;100.00
64141;BME280;50436;50.618;7.932;2024-03-07T06:57:19;97095.41;;;1.24;100.00
64141;BME280;50436;50.618;7.932;2024-03-07T07:00:06;97099.31;;;1.36;100.00
64141;BME280;50436;50.618;7.932;2024-03-07T07:02:56;97093.16;;;1.44;100.00
64141;BME280;50436;50.618;7.932;2024-03-07T07:05:45;97090.09;;;1.55;100.00
64141;BME280;50436;50.618;7.932;2024-03-07T07:08:32;97078.59;;;1.71;100.00
64141;BME280;50436;50.618;7.932;2024-03-07T07:11:18;97079.44;;;1.72;100.00
64141;BME280;50436;50.618;7.932;2024-03-07T07:14:03;97084.78;;;1.78;100.00
64141;BME280;50436;50.618;7.932;2024-03-07T07:16:49;97091.66;;;1.87;100.00
64141;BME280;50436;50.618;7.932;2024-03-07T07:19:35;97080.34;;;1.79;100.00
64141;BME280;50436;50.618;7.932;2024-03-07T07:22:21;97071.03;;;1.68;100.00
64141;BME280;50436;50.618;7.932;2024-03-07T07:25:08;97073.50;;;1.70;100.00
64141;BME280;50436;50.618;7.932;2024-03-07T07:28:03;97069.47;;;1.97;100.00
64141;BME280;50436;50.618;7.932;2024-03-07T07:30:53;97077.56;;;2.10;100.00
64141;BME280;50436;50.618;7.932;2024-03-07T07:33:39;97080.44;;;2.23;100.00
64141;BME280;50436;50.618;7.932;2024-03-07T07:36:25;97070.88;;;2.22;100.00
64141;BME280;50436;50.618;7.932;2024-03-07T07:39:11;97075.25;;;2.30;100.00
64141;BME280;50436;50.618;7.932;2024-03-07T07:42:02;97063.78;;;2.37;100.00
64141;BME280;50436;50.618;7.932;2024-03-07T07:44:48;97058.50;;;2.52;100.00
64141;BME280;50436;50.618;7.932;2024-03-07T07:47:34;97061.03;;;2.45;100.00
64141;BME280;50436;50.618;7.932;2024-03-07T07:50:24;97058.50;;;2.37;100.00
64141;BME280;50436;50.618;7.932;2024-03-07T07:53:10;97053.94;;;2.31;100.00
64141;BME280;50436;50.618;7.932;2024-03-07T07:55:56;97057.03;;;2.20;100.00
64141;BME280;50436;50.618;7.932;2024-03-07T07:58:42;97055.84;;;2.37;100.00
64141;BME280;50436;50.618;7.932;2024-03-07T08:01:28;97052.56;;;2.50;100.00
64141;BME280;50436;50.618;7.932;2024-03-07T08:04:13;97049.03;;;2.58;100.00
64141;BME280;50436;50.618;7.932;2024-03-07T08:06:59;97059.41;;;2.59;100.00
64141;BME280;50436;50.618;7.932;2024-03-07T08:09:45;97067.56;;;2.79;100.00
64141;BME280;50436;50.618;7.932;2024-03-07T08:12:31;97060.09;;;2.83;100.00
64141;BME280;50436;50.618;7.932;2024-03-07T08:15:17;97050.66;;;2.95;100.00
64141;BME280;50436;50.618;7.932;2024-03-07T08:18:03;97052.38;;;3.02;100.00
64141;BME280;50436;50.618;7.932;2024-03-07T08:20:54;97055.97;;;2.95;100.00
64141;BME280;50436;50.618;7.932;2024-03-07T08:23:40;97052.59;;;2.86;100.00
64141;BME280;50436;50.618;7.932;2024-03-07T08:26:27;97055.28;;;3.07;100.00
64141;BME280;50436;50.618;7.932;2024-03-07T08:29:12;97039.88;;;3.32;100.00
64141;BME280;50436;50.618;7.932;2024-03-07T08:31:58;97043.63;;;3.38;100.00
64141;BME280;50436;50.618;7.932;2024-03-07T08:34:45;97058.97;;;3.49;100.00
64141;BME280;50436;50.618;7.932;2024-03-07T08:37:31;97047.44;;;3.78;100.00
64141;BME280;50436;50.618;7.932;2024-03-07T08:40:16;97048.97;;;3.66;100.00
64141;BME280;50436;50.618;7.932;2024-03-07T08:43:05;97054.97;;;3.53;100.00
64141;BME280;50436;50.618;7.932;2024-03-07T08:45:52;97043.16;;;3.77;100.00
64141;BME280;50436;50.618;7.932;2024-03-07T08:48:38;97034.38;;;3.77;100.00
64141;BME280;50436;50.618;7.932;2024-03-07T08:51:24;97035.59;;;3.74;100.00
64141;BME280;50436;50.618;7.932;2024-03-07T08:54:10;97033.91;;;3.67;100.00
64141;BME280;50436;50.618;7.932;2024-03-07T08:56:56;97029.94;;;4.05;100.00
64141;BME280;50436;50.618;7.932;2024-03-07T08:59:42;97032.06;;;4.23;100.00
64141;BME280;50436;50.618;7.932;2024-03-07T09:02:28;97028.34;;;4.45;100.00
64141;BME280;50436;50.618;7.932;2024-03-07T09:05:14;97039.34;;;4.49;100.00
64141;BME280;50436;50.618;7.932;2024-03-07T09:08:01;97025.16;;;4.63;100.00
64141;BME280;50436;50.618;7.932;2024-03-07T09:10:49;97026.00;;;4.70;100.00
64141;BME280;50436;50.618;7.932;2024-03-07T09:13:34;97032.59;;;4.88;100.00
64141;BME280;50436;50.618;7.932;2024-03-07T09:16:20;97030.00;;;5.01;100.00
64141;BME280;50436;50.618;7.932;2024-03-07T09:19:06;97024.66;;;4.94;100.00
64141;BME280;50436;50.618;7.932;2024-03-07T09:21:52;97026.44;;;4.81;100.00
64141;BME280;50436;50.618;7.932;2024-03-07T09:24:38;97031.00;;;5.00;100.00
64141;BME280;50436;50.618;7.932;2024-03-07T09:27:25;97021.44;;;4.99;100.00
64141;BME280;50436;50.618;7.932;2024-03-07T09:30:11;97026.34;;;5.09;100.00
64141;BME280;50436;50.618;7.932;2024-03-07T09:32:57;97023.41;;;4.84;100.00
64141;BME280;50436;50.618;7.932;2024-03-07T09:35:43;97023.25;;;5.05;100.00
64141;BME280;50436;50.618;7.932;2024-03-07T09:38:29;97018.19;;;5.10;100.00
64141;BME280;50436;50.618;7.932;2024-03-07T09:41:15;97020.84;;;5.10;100.00
64141;BME280;50436;50.618;7.932;2024-03-07T09:44:03;97023.38;;;5.45;100.00
64141;BME280;50436;50.618;7.932;2024-03-07T09:46:54;97020.53;;;5.53;100.00
64141;BME280;50436;50.618;7.932;2024-03-07T09:49:41;97022.16;;;5.74;100.00
64141;BME280;50436;50.618;7.932;2024-03-07T09:52:27;97026.44;;;5.75;100.00
64141;BME280;50436;50.618;7.932;2024-03-07T09:55:18;97028.19;;;5.08;100.00
64141;BME280;50436;50.618;7.932;2024-03-07T09:58:06;97032.50;;;5.16;100.00
64141;BME280;50436;50.618;7.932;2024-03-07T10:00:55;97022.66;;;5.03;100.00
64141;BME280;50436;50.618;7.932;2024-03-07T10:03:45;97031.72;;;5.48;100.00
64141;BME280;50436;50.618;7.932;2024-03-07T10:06:32;97029.91;;;5.75;100.00
64141;BME280;50436;50.618;7.932;2024-03-07T10:09:20;97027.28;;;6.02;100.00
64141;BME280;50436;50.618;7.932;2024-03-07T10:12:08;97028.28;;;5.81;100.00
64141;BME280;50436;50.618;7.932;2024-03-07T10:15:03;97021.34;;;6.20;100.00
64141;BME280;50436;50.618;7.932;2024-03-07T10:17:50;97013.34;;;6.26;100.00
64141;BME280;50436;50.618;7.932;2024-03-07T10:20:36;97023.19;;;6.12;100.00
64141;BME280;50436;50.618;7.932;2024-03-07T10:23:23;97022.56;;;6.17;100.00
64141;BME280;50436;50.618;7.932;2024-03-07T10:26:10;97020.94;;;6.16;100.00
64141;BME280;50436;50.618;7.932;2024-03-07T10:28:56;97022.97;;;5.74;100.00
64141;BME280;50436;50.618;7.932;2024-03-07T10:31:42;97007.47;;;6.04;100.00
64141;BME280;50436;50.618;7.932;2024-03-07T10:34:33;97014.00;;;6.02;100.00
64141;BME280;50436;50.618;7.932;2024-03-07T10:37:19;97012.97;;;6.16;100.00
64141;BME280;50436;50.618;7.932;2024-03-07T10:40:11;97017.56;;;6.60;100.00
64141;BME280;50436;50.618;7.932;2024-03-07T10:43:05;97023.00;;;6.85;100.00
64141;BME280;50436;50.618;7.932;2024-03-07T10:45:56;97008.25;;;6.25;100.00
64141;BME280;50436;50.618;7.932;2024-03-07T10:48:46;97014.84;;;6.74;100.00
64141;BME280;50436;50.618;7.932;2024-03-07T10:51:40;97010.72;;;6.84;100.00
64141;BME280;50436;50.618;7.932;2024-03-07T10:54:39;97010.81;;;6.58;100.00
64141;BME280;50436;50.618;7.932;2024-03-07T10:57:49;97009.06;;;6.32;100.00
64141;BME280;50436;50.618;7.932;2024-03-07T11:00:37;97010.00;;;7.09;100.00
64141;BME280;50436;50.618;7.932;2024-03-07T11:03:31;97011.63;;;7.73;100.00
64141;BME280;50436;50.618;7.932;2024-03-07T11:06:19;97015.47;;;8.27;100.00
64141;BME280;50436;50.618;7.932;2024-03-07T11:09:05;97003.22;;;9.41;100.00
64141;BME280;50436;50.618;7.932;2024-03-07T11:11:56;96997.66;;;8.82;100.00
64141;BME280;50436;50.618;7.932;2024-03-07T11:14:44;97000.44;;;8.32;100.00
64141;BME280;50436;50.618;7.932;2024-03-07T11:17:32;97003.88;;;7.96;100.00
64141;BME280;50436;50.618;7.932;2024-03-07T11:20:23;96998.31;;;7.48;100.00
64141;BME280;50436;50.618;7.932;2024-03-07T11:23:29;97003.56;;;7.23;100.00
64141;BME280;50436;50.618;7.932;2024-03-07T11:26:16;96997.41;;;7.54;100.00
64141;BME280;50436;50.618;7.932;2024-03-07T11:32:28;96991.25;;;6.90;100.00
64141;BME280;50436;50.618;7.932;2024-03-07T11:35:14;96989.94;;;7.06;100.00
64141;BME280;50436;50.618;7.932;2024-03-07T11:38:09;96998.75;;;7.00;100.00
64141;BME280;50436;50.618;7.932;2024-03-07T11:41:00;96986.16;;;7.52;100.00
64141;BME280;50436;50.618;7.932;2024-03-07T11:43:48;96985.31;;;7.83;100.00
64141;BME280;50436;50.618;7.932;2024-03-07T11:46:33;96971.94;;;7.90;100.00
64141;BME280;50436;50.618;7.932;2024-03-07T11:49:20;96980.66;;;7.47;100.00
64141;BME280;50436;50.618;7.932;2024-03-07T11:52:06;96973.25;;;7.56;100.00
64141;BME280;50436;50.618;7.932;2024-03-07T11:54:58;96976.69;;;7.31;100.00
64141;BME280;50436;50.618;7.932;2024-03-07T11:57:49;96963.97;;;7.65;100.00
64141;BME280;50436;50.618;7.932;2024-03-07T12:00:45;96971.78;;;7.60;100.00
64141;BME280;50436;50.618;7.932;2024-03-07T12:03:31;96967.06;;;7.30;100.00
64141;BME280;50436;50.618;7.932;2024-03-07T12:06:19;96968.25;;;7.09;100.00
64141;BME280;50436;50.618;7.932;2024-03-07T12:09:06;96959.59;;;7.14;100.00
64141;BME280;50436;50.618;7.932;2024-03-07T12:12:05;96955.97;;;7.65;100.00
64141;BME280;50436;50.618;7.932;2024-03-07T12:14:51;96944.97;;;7.54;100.00
64141;BME280;50436;50.618;7.932;2024-03-07T12:17:38;96958.63;;;7.90;100.00
64141;BME280;50436;50.618;7.932;2024-03-07T12:20:25;96949.28;;;7.80;100.00
64141;BME280;50436;50.618;7.932;2024-03-07T12:23:15;96939.22;;;7.58;100.00
64141;BME280;50436;50.618;7.932;2024-03-07T12:26:04;96934.00;;;7.44;100.00
64141;BME280;50436;50.618;7.932;2024-03-07T12:28:50;96937.09;;;7.41;100.00
64141;BME280;50436;50.618;7.932;2024-03-07T12:31:39;96933.28;;;6.99;100.00
64141;BME280;50436;50.618;7.932;2024-03-07T12:34:25;96931.28;;;6.94;100.00
64141;BME280;50436;50.618;7.932;2024-03-07T12:37:16;96927.34;;;6.59;100.00
64141;BME280;50436;50.618;7.932;2024-03-07T12:40:11;96927.63;;;6.44;100.00
64141;BME280;50436;50.618;7.932;2024-03-07T12:43:00;96918.63;;;6.83;100.00
64141;BME280;50436;50.618;7.932;2024-03-07T12:45:51;96922.59;;;6.67;100.00
64141;BME280;50436;50.618;7.932;2024-03-07T12:48:37;96923.34;;;6.81;100.00
64141;BME280;50436;50.618;7.932;2024-03-07T12:51:24;96922.06;;;6.90;100.00
64141;BME280;50436;50.618;7.932;2024-03-07T12:54:13;96920.13;;;7.11;100.00
64141;BME280;50436;50.618;7.932;2024-03-07T12:56:59;96912.06;;;7.24;100.00
64141;BME280;50436;50.618;7.932;2024-03-07T12:59:44;96904.16;;;7.11;100.00
64141;BME280;50436;50.618;7.932;2024-03-07T13:02:30;96897.88;;;6.98;100.00
64141;BME280;50436;50.618;7.932;2024-03-07T13:05:16;96905.00;;;6.73;100.00
64141;BME280;50436;50.618;7.932;2024-03-07T13:08:07;96909.94;;;6.69;100.00
64141;BME280;50436;50.618;7.932;2024-03-07T13:10:58;96900.50;;;6.67;100.00
64141;BME280;50436;50.618;7.932;2024-03-07T13:13:44;96901.69;;;6.39;100.00
64141;BME280;50436;50.618;7.932;2024-03-07T13:16:30;96900.78;;;6.52;100.00
64141;BME280;50436;50.618;7.932;2024-03-07T13:19:16;96886.59;;;6.27;100.00
64141;BME280;50436;50.618;7.932;2024-03-07T13:22:06;96902.16;;;6.23;100.00
64141;BME280;50436;50.618;7.932;2024-03-07T13:24:52;96901.16;;;6.11;100.00
64141;BME280;50436;50.618;7.932;2024-03-07T13:27:38;96896.28;;;6.08;100.00
64141;BME280;50436;50.618;7.932;2024-03-07T13:30:26;96903.22;;;6.16;100.00
64141;BME280;50436;50.618;7.932;2024-03-07T13:33:15;96897.63;;;6.30;100.00
64141;BME280;50436;50.618;7.932;2024-03-07T13:36:01;96894.34;;;6.28;100.00
64141;BME280;50436;50.618;7.932;2024-03-07T13:38:47;96891.25;;;6.38;100.00
64141;BME280;50436;50.618;7.932;2024-03-07T13:41:33;96886.34;;;6.41;100.00
64141;BME280;50436;50.618;7.932;2024-03-07T13:44:18;96872.06;;;6.29;100.00
64141;BME280;50436;50.618;7.932;2024-03-07T13:47:05;96875.81;;;6.15;100.00
64141;BME280;50436;50.618;7.932;2024-03-07T13:49:52;96872.25;;;6.34;100.00
64141;BME280;50436;50.618;7.932;2024-03-07T13:52:39;96873.75;;;6.17;100.00
64141;BME280;50436;50.618;7.932;2024-03-07T13:55:29;96874.13;;;6.27;100.00
64141;BME280;50436;50.618;7.932;2024-03-07T13:58:24;96866.97;;;6.21;100.00
64141;BME280;50436;50.618;7.932;2024-03-07T14:11:08;96853.69;;;6.28;100.00
64141;BME280;50436;50.618;7.932;2024-03-07T14:31:49;96847.78;;;6.64;100.00
64141;BME280;50436;50.618;7.932;2024-03-07T14:37:45;96834.00;;;6.35;100.00
64141;BME280;50436;50.618;7.932;2024-03-07T14:40:36;96838.44;;;6.48;100.00
64141;BME280;50436;50.618;7.932;2024-03-07T14:43:22;96832.69;;;6.51;100.00
64141;BME280;50436;50.618;7.932;2024-03-07T14:46:09;96839.31;;;6.35;100.00
64141;BME280;50436;50.618;7.932;2024-03-07T14:48:55;96832.44;;;6.21;100.00
64141;BME280;50436;50.618;7.932;2024-03-07T14:51:41;96834.75;;;6.04;100.00
64141;BME280;50436;50.618;7.932;2024-03-07T14:54:27;96825.81;;;5.85;100.00
64141;BME280;50436;50.618;7.932;2024-03-07T14:57:13;96830.50;;;5.97;100.00
64141;BME280;50436;50.618;7.932;2024-03-07T14:59:59;96818.97;;;6.23;100.00
64141;BME280;50436;50.618;7.932;2024-03-07T15:02:46;96825.19;;;6.41;100.00
64141;BME280;50436;50.618;7.932;2024-03-07T15:05:32;96825.69;;;6.63;100.00
64141;BME280;50436;50.618;7.932;2024-03-07T15:08:18;96817.03;;;6.68;100.00
64141;BME280;50436;50.618;7.932;2024-03-07T15:11:26;96818.34;;;6.59;100.00
64141;BME280;50436;50.618;7.932;2024-03-07T15:14:14;96814.00;;;6.33;100.00
64141;BME280;50436;50.618;7.932;2024-03-07T15:17:01;96813.75;;;6.41;100.00
64141;BME280;50436;50.618;7.932;2024-03-07T15:19:49;96810.38;;;6.21;100.00